Terminal Aerodrome Forecast
Issued by NWS

Home | Current Version | Previous Version | Text Only | Print | Product List | Glossary On
Versions: 1 2 3 4 5 6 7 8 9 10 11 12 13 14 15 16 17 18 19 20 21 22 23
186
FTUS43 KDVN 301730
TAFBRL
TAF
KBRL 301730Z 3018/3118 13006KT P6SM SCT080
     FM302100 16007KT P6SM VCSH SCT060
     FM310200 15004KT P6SM SCT120
     FM310900 16003KT 5SM BR BKN250
     FM311500 19008KT P6SM BKN250=

USA.gov is the U.S. government's official web portal to all federal, state and local government web resources and services.